sensor_id;sensor_type;location;lat;lon;timestamp;temperature;humidity
26326;DHT22;14032;52.510;7.342;2024-03-29T00:01:18;7.90;99.90
26326;DHT22;14032;52.510;7.342;2024-03-29T00:03:43;7.90;99.90
26326;DHT22;14032;52.510;7.342;2024-03-29T00:06:10;7.90;99.90
26326;DHT22;14032;52.510;7.342;2024-03-29T00:08:35;8.00;99.90
26326;DHT22;14032;52.510;7.342;2024-03-29T00:11:02;8.00;99.90
26326;DHT22;14032;52.510;7.342;2024-03-29T00:13:29;7.90;99.90
26326;DHT22;14032;52.510;7.342;2024-03-29T00:15:54;7.90;99.90
26326;DHT22;14032;52.510;7.342;2024-03-29T00:18:20;7.90;99.90
26326;DHT22;14032;52.510;7.342;2024-03-29T00:20:47;7.90;99.90
26326;DHT22;14032;52.510;7.342;2024-03-29T00:23:13;8.00;99.90
26326;DHT22;14032;52.510;7.342;2024-03-29T00:25:39;8.00;99.90
26326;DHT22;14032;52.510;7.342;2024-03-29T00:28:04;7.90;99.90
26326;DHT22;14032;52.510;7.342;2024-03-29T00:30:30;7.90;99.90
26326;DHT22;14032;52.510;7.342;2024-03-29T00:32:56;7.90;99.90
26326;DHT22;14032;52.510;7.342;2024-03-29T00:35:21;7.90;99.90
26326;DHT22;14032;52.510;7.342;2024-03-29T00:37:49;7.90;99.90
26326;DHT22;14032;52.510;7.342;2024-03-29T00:40:16;7.90;99.90
26326;DHT22;14032;52.510;7.342;2024-03-29T00:42:41;7.90;99.90
26326;DHT22;14032;52.510;7.342;2024-03-29T00:45:08;7.90;99.90
26326;DHT22;14032;52.510;7.342;2024-03-29T00:47:34;7.80;99.90
26326;DHT22;14032;52.510;7.342;2024-03-29T00:50:00;7.90;99.90
26326;DHT22;14032;52.510;7.342;2024-03-29T00:52:26;7.90;99.90
26326;DHT22;14032;52.510;7.342;2024-03-29T00:54:52;7.90;99.90
26326;DHT22;14032;52.510;7.342;2024-03-29T00:57:18;7.80;99.90
26326;DHT22;14032;52.510;7.342;2024-03-29T00:59:44;7.80;99.90
26326;DHT22;14032;52.510;7.342;2024-03-29T01:02:10;7.80;99.90
26326;DHT22;14032;52.510;7.342;2024-03-29T01:04:35;7.80;99.90
26326;DHT22;14032;52.510;7.342;2024-03-29T01:07:01;7.80;99.90
26326;DHT22;14032;52.510;7.342;2024-03-29T01:09:27;7.70;99.90
26326;DHT22;14032;52.510;7.342;2024-03-29T01:11:53;7.80;99.90
26326;DHT22;14032;52.510;7.342;2024-03-29T01:14:19;7.80;99.90
26326;DHT22;14032;52.510;7.342;2024-03-29T01:16:44;7.70;99.90
26326;DHT22;14032;52.510;7.342;2024-03-29T01:19:10;7.70;99.90
26326;DHT22;14032;52.510;7.342;2024-03-29T01:21:36;7.70;99.90
26326;DHT22;14032;52.510;7.342;2024-03-29T01:24:02;7.70;99.90
26326;DHT22;14032;52.510;7.342;2024-03-29T01:26:28;7.70;99.90
26326;DHT22;14032;52.510;7.342;2024-03-29T01:28:54;7.60;99.90
26326;DHT22;14032;52.510;7.342;2024-03-29T01:31:19;7.60;99.90
26326;DHT22;14032;52.510;7.342;2024-03-29T01:33:45;7.60;99.90
26326;DHT22;14032;52.510;7.342;2024-03-29T01:36:10;7.60;99.90
26326;DHT22;14032;52.510;7.342;2024-03-29T01:38:36;7.60;99.90
26326;DHT22;14032;52.510;7.342;2024-03-29T01:41:02;7.60;99.90
26326;DHT22;14032;52.510;7.342;2024-03-29T01:43:28;7.70;99.90
26326;DHT22;14032;52.510;7.342;2024-03-29T01:45:54;7.70;99.90
26326;DHT22;14032;52.510;7.342;2024-03-29T01:48:22;7.70;99.90
26326;DHT22;14032;52.510;7.342;2024-03-29T01:50:48;7.70;99.90
26326;DHT22;14032;52.510;7.342;2024-03-29T01:53:15;7.80;99.90
26326;DHT22;14032;52.510;7.342;2024-03-29T01:55:41;7.70;99.90
26326;DHT22;14032;52.510;7.342;2024-03-29T01:58:08;7.70;99.90
26326;DHT22;14032;52.510;7.342;2024-03-29T02:00:37;7.70;99.90
26326;DHT22;14032;52.510;7.342;2024-03-29T02:03:05;7.70;99.90
26326;DHT22;14032;52.510;7.342;2024-03-29T02:05:36;7.70;99.90
26326;DHT22;14032;52.510;7.342;2024-03-29T02:08:04;7.70;99.90
26326;DHT22;14032;52.510;7.342;2024-03-29T02:10:29;7.70;99.90
26326;DHT22;14032;52.510;7.342;2024-03-29T02:12:56;7.70;99.90
26326;DHT22;14032;52.510;7.342;2024-03-29T02:15:22;7.70;99.90
26326;DHT22;14032;52.510;7.342;2024-03-29T02:17:47;7.60;99.90
26326;DHT22;14032;52.510;7.342;2024-03-29T02:20:13;7.50;99.90
26326;DHT22;14032;52.510;7.342;2024-03-29T02:22:44;7.50;99.90
26326;DHT22;14032;52.510;7.342;2024-03-29T02:25:12;7.50;99.90
26326;DHT22;14032;52.510;7.342;2024-03-29T02:27:38;7.50;99.90
26326;DHT22;14032;52.510;7.342;2024-03-29T02:30:04;7.50;99.90
26326;DHT22;14032;52.510;7.342;2024-03-29T02:32:30;7.50;99.90
26326;DHT22;14032;52.510;7.342;2024-03-29T02:34:56;7.40;99.90
26326;DHT22;14032;52.510;7.342;2024-03-29T02:37:21;7.40;99.90
26326;DHT22;14032;52.510;7.342;2024-03-29T02:39:47;7.40;99.90
26326;DHT22;14032;52.510;7.342;2024-03-29T02:42:12;7.40;99.90
26326;DHT22;14032;52.510;7.342;2024-03-29T02:44:38;7.30;99.90
26326;DHT22;14032;52.510;7.342;2024-03-29T02:47:04;7.30;99.90
26326;DHT22;14032;52.510;7.342;2024-03-29T02:49:30;7.30;99.90
26326;DHT22;14032;52.510;7.342;2024-03-29T02:51:56;7.30;99.90
26326;DHT22;14032;52.510;7.342;2024-03-29T02:54:22;7.30;99.90
26326;DHT22;14032;52.510;7.342;2024-03-29T02:56:48;7.30;99.90
26326;DHT22;14032;52.510;7.342;2024-03-29T02:59:13;7.20;99.90
26326;DHT22;14032;52.510;7.342;2024-03-29T03:01:40;7.20;99.90
26326;DHT22;14032;52.510;7.342;2024-03-29T03:04:06;7.20;99.90
26326;DHT22;14032;52.510;7.342;2024-03-29T03:06:31;7.20;99.90
26326;DHT22;14032;52.510;7.342;2024-03-29T03:08:57;7.30;99.90
26326;DHT22;14032;52.510;7.342;2024-03-29T03:11:41;7.20;99.90
26326;DHT22;14032;52.510;7.342;2024-03-29T03:14:07;7.30;99.90
26326;DHT22;14032;52.510;7.342;2024-03-29T03:16:32;7.30;99.90
26326;DHT22;14032;52.510;7.342;2024-03-29T03:18:58;7.20;99.90
26326;DHT22;14032;52.510;7.342;2024-03-29T03:21:24;7.20;99.90
26326;DHT22;14032;52.510;7.342;2024-03-29T03:23:49;7.20;99.90
26326;DHT22;14032;52.510;7.342;2024-03-29T03:26:15;7.30;99.90
26326;DHT22;14032;52.510;7.342;2024-03-29T03:28:40;7.20;99.90
26326;DHT22;14032;52.510;7.342;2024-03-29T03:31:06;7.20;99.90
26326;DHT22;14032;52.510;7.342;2024-03-29T03:33:32;7.20;99.90
26326;DHT22;14032;52.510;7.342;2024-03-29T03:35:58;7.20;99.90
26326;DHT22;14032;52.510;7.342;2024-03-29T03:38:24;7.20;99.90
26326;DHT22;14032;52.510;7.342;2024-03-29T03:40:50;7.20;99.90
26326;DHT22;14032;52.510;7.342;2024-03-29T03:43:16;7.20;99.90
26326;DHT22;14032;52.510;7.342;2024-03-29T03:45:41;7.20;99.90
26326;DHT22;14032;52.510;7.342;2024-03-29T03:48:08;7.30;99.90
26326;DHT22;14032;52.510;7.342;2024-03-29T03:50:36;7.30;99.90
26326;DHT22;14032;52.510;7.342;2024-03-29T03:53:02;7.30;99.90
26326;DHT22;14032;52.510;7.342;2024-03-29T03:55:28;7.30;99.90
26326;DHT22;14032;52.510;7.342;2024-03-29T03:57:54;7.30;99.90
26326;DHT22;14032;52.510;7.342;2024-03-29T04:00:20;7.30;99.90
26326;DHT22;14032;52.510;7.342;2024-03-29T04:02:50;7.30;99.90
26326;DHT22;14032;52.510;7.342;2024-03-29T04:05:17;7.40;99.90
26326;DHT22;14032;52.510;7.342;2024-03-29T04:07:43;7.40;99.90
26326;DHT22;14032;52.510;7.342;2024-03-29T04:10:08;7.40;99.90
26326;DHT22;14032;52.510;7.342;2024-03-29T04:12:34;7.40;99.90
26326;DHT22;14032;52.510;7.342;2024-03-29T04:15:00;7.40;99.90
26326;DHT22;14032;52.510;7.342;2024-03-29T04:17:25;7.40;99.90
26326;DHT22;14032;52.510;7.342;2024-03-29T04:19:51;7.40;99.90
26326;DHT22;14032;52.510;7.342;2024-03-29T04:22:17;7.40;99.90
26326;DHT22;14032;52.510;7.342;2024-03-29T04:24:42;7.40;99.90
26326;DHT22;14032;52.510;7.342;2024-03-29T04:27:08;7.50;99.90
26326;DHT22;14032;52.510;7.342;2024-03-29T04:29:33;7.50;99.90
26326;DHT22;14032;52.510;7.342;2024-03-29T04:31:59;7.60;99.90
26326;DHT22;14032;52.510;7.342;2024-03-29T04:34:24;7.60;99.90
26326;DHT22;14032;52.510;7.342;2024-03-29T04:36:50;7.60;99.90
26326;DHT22;14032;52.510;7.342;2024-03-29T04:39:16;7.70;99.90
26326;DHT22;14032;52.510;7.342;2024-03-29T04:41:41;7.70;99.90
26326;DHT22;14032;52.510;7.342;2024-03-29T04:44:08;7.80;99.90
26326;DHT22;14032;52.510;7.342;2024-03-29T04:46:34;7.90;99.90
26326;DHT22;14032;52.510;7.342;2024-03-29T04:48:59;8.00;99.90
26326;DHT22;14032;52.510;7.342;2024-03-29T04:51:25;8.00;99.90
26326;DHT22;14032;52.510;7.342;2024-03-29T04:53:50;8.10;99.90
26326;DHT22;14032;52.510;7.342;2024-03-29T04:56:16;8.20;99.90
26326;DHT22;14032;52.510;7.342;2024-03-29T04:58:42;8.20;99.90
26326;DHT22;14032;52.510;7.342;2024-03-29T05:01:08;8.20;99.90
26326;DHT22;14032;52.510;7.342;2024-03-29T05:03:34;8.20;99.90
26326;DHT22;14032;52.510;7.342;2024-03-29T05:06:01;8.20;99.90
26326;DHT22;14032;52.510;7.342;2024-03-29T05:08:26;8.40;99.90
26326;DHT22;14032;52.510;7.342;2024-03-29T05:10:52;8.40;99.90
26326;DHT22;14032;52.510;7.342;2024-03-29T05:13:18;8.50;99.90
26326;DHT22;14032;52.510;7.342;2024-03-29T05:15:45;8.40;99.90
26326;DHT22;14032;52.510;7.342;2024-03-29T05:18:12;8.50;99.90
26326;DHT22;14032;52.510;7.342;2024-03-29T05:20:38;8.50;99.90
26326;DHT22;14032;52.510;7.342;2024-03-29T05:23:06;8.50;99.90
26326;DHT22;14032;52.510;7.342;2024-03-29T05:25:32;8.50;99.90
26326;DHT22;14032;52.510;7.342;2024-03-29T05:27:58;8.50;99.90
26326;DHT22;14032;52.510;7.342;2024-03-29T05:30:24;8.50;99.90
26326;DHT22;14032;52.510;7.342;2024-03-29T05:32:49;8.30;99.90
26326;DHT22;14032;52.510;7.342;2024-03-29T05:35:15;8.30;99.90
26326;DHT22;14032;52.510;7.342;2024-03-29T05:37:41;8.30;99.90
26326;DHT22;14032;52.510;7.342;2024-03-29T05:40:08;8.20;99.90
26326;DHT22;14032;52.510;7.342;2024-03-29T05:42:34;8.10;99.90
26326;DHT22;14032;52.510;7.342;2024-03-29T05:45:02;8.00;99.90
26326;DHT22;14032;52.510;7.342;2024-03-29T05:47:28;8.00;99.90
26326;DHT22;14032;52.510;7.342;2024-03-29T05:49:54;7.90;99.90
26326;DHT22;14032;52.510;7.342;2024-03-29T05:52:19;7.90;99.90
26326;DHT22;14032;52.510;7.342;2024-03-29T05:54:46;7.80;99.90
26326;DHT22;14032;52.510;7.342;2024-03-29T05:57:12;7.70;99.90
26326;DHT22;14032;52.510;7.342;2024-03-29T05:59:38;7.70;99.90
26326;DHT22;14032;52.510;7.342;2024-03-29T06:02:04;7.70;99.90
26326;DHT22;14032;52.510;7.342;2024-03-29T06:04:30;7.60;99.90
26326;DHT22;14032;52.510;7.342;2024-03-29T06:07:03;7.60;99.90
26326;DHT22;14032;52.510;7.342;2024-03-29T06:09:29;7.50;99.90
26326;DHT22;14032;52.510;7.342;2024-03-29T06:11:55;7.50;99.90
26326;DHT22;14032;52.510;7.342;2024-03-29T06:14:22;7.40;99.90
26326;DHT22;14032;52.510;7.342;2024-03-29T06:17:06;7.40;99.90
26326;DHT22;14032;52.510;7.342;2024-03-29T06:19:54;7.40;99.90
26326;DHT22;14032;52.510;7.342;2024-03-29T06:22:26;7.40;99.90
26326;DHT22;14032;52.510;7.342;2024-03-29T06:24:57;7.40;99.90
26326;DHT22;14032;52.510;7.342;2024-03-29T06:27:31;7.40;99.90
26326;DHT22;14032;52.510;7.342;2024-03-29T06:29:58;7.30;99.90
26326;DHT22;14032;52.510;7.342;2024-03-29T06:32:24;7.30;99.90
26326;DHT22;14032;52.510;7.342;2024-03-29T06:34:50;7.40;99.90
26326;DHT22;14032;52.510;7.342;2024-03-29T06:37:16;7.30;99.90
26326;DHT22;14032;52.510;7.342;2024-03-29T06:39:42;7.30;99.90
26326;DHT22;14032;52.510;7.342;2024-03-29T06:42:09;7.40;99.90
26326;DHT22;14032;52.510;7.342;2024-03-29T06:44:35;7.30;99.90
26326;DHT22;14032;52.510;7.342;2024-03-29T06:47:02;7.40;99.90
26326;DHT22;14032;52.510;7.342;2024-03-29T06:49:28;7.40;99.90
26326;DHT22;14032;52.510;7.342;2024-03-29T06:51:54;7.40;99.90
26326;DHT22;14032;52.510;7.342;2024-03-29T06:54:22;7.40;99.90
26326;DHT22;14032;52.510;7.342;2024-03-29T06:56:54;7.40;99.90
26326;DHT22;14032;52.510;7.342;2024-03-29T06:59:24;7.40;99.90
26326;DHT22;14032;52.510;7.342;2024-03-29T07:01:53;7.40;99.90
26326;DHT22;14032;52.510;7.342;2024-03-29T07:04:19;7.40;99.90
26326;DHT22;14032;52.510;7.342;2024-03-29T07:06:45;7.40;99.90
26326;DHT22;14032;52.510;7.342;2024-03-29T07:09:13;7.40;99.90
26326;DHT22;14032;52.510;7.342;2024-03-29T07:11:41;7.30;99.90
26326;DHT22;14032;52.510;7.342;2024-03-29T07:14:06;7.40;99.90
26326;DHT22;14032;52.510;7.342;2024-03-29T07:16:32;7.40;99.90
26326;DHT22;14032;52.510;7.342;2024-03-29T07:18:59;7.40;99.90
26326;DHT22;14032;52.510;7.342;2024-03-29T07:21:26;7.40;99.90
26326;DHT22;14032;52.510;7.342;2024-03-29T07:23:51;7.40;99.90
26326;DHT22;14032;52.510;7.342;2024-03-29T07:26:18;7.40;99.90
26326;DHT22;14032;52.510;7.342;2024-03-29T07:28:44;7.50;99.90
26326;DHT22;14032;52.510;7.342;2024-03-29T07:31:10;7.50;99.90
26326;DHT22;14032;52.510;7.342;2024-03-29T07:33:36;7.60;99.90
26326;DHT22;14032;52.510;7.342;2024-03-29T07:36:02;7.60;99.90
26326;DHT22;14032;52.510;7.342;2024-03-29T07:38:29;7.70;99.90
26326;DHT22;14032;52.510;7.342;2024-03-29T07:40:55;7.80;99.90
26326;DHT22;14032;52.510;7.342;2024-03-29T07:43:22;7.80;99.90
26326;DHT22;14032;52.510;7.342;2024-03-29T07:45:48;7.80;99.90
26326;DHT22;14032;52.510;7.342;2024-03-29T07:48:17;7.90;99.90
26326;DHT22;14032;52.510;7.342;2024-03-29T07:50:44;8.00;99.90
26326;DHT22;14032;52.510;7.342;2024-03-29T07:53:10;7.90;99.90
26326;DHT22;14032;52.510;7.342;2024-03-29T07:55:38;8.00;99.90
26326;DHT22;14032;52.510;7.342;2024-03-29T07:58:04;8.00;99.90
26326;DHT22;14032;52.510;7.342;2024-03-29T08:00:34;8.10;99.90
26326;DHT22;14032;52.510;7.342;2024-03-29T08:03:00;8.00;99.90
26326;DHT22;14032;52.510;7.342;2024-03-29T08:05:29;8.00;99.90
26326;DHT22;14032;52.510;7.342;2024-03-29T08:07:55;8.10;99.90
26326;DHT22;14032;52.510;7.342;2024-03-29T08:10:21;8.10;99.90
26326;DHT22;14032;52.510;7.342;2024-03-29T08:12:47;8.10;99.90
26326;DHT22;14032;52.510;7.342;2024-03-29T08:15:14;8.10;99.90
26326;DHT22;14032;52.510;7.342;2024-03-29T08:17:39;8.10;99.90
26326;DHT22;14032;52.510;7.342;2024-03-29T08:20:06;8.10;99.90
26326;DHT22;14032;52.510;7.342;2024-03-29T08:22:31;8.20;99.90
26326;DHT22;14032;52.510;7.342;2024-03-29T08:25:00;8.20;99.90
26326;DHT22;14032;52.510;7.342;2024-03-29T08:27:27;8.20;99.90
26326;DHT22;14032;52.510;7.342;2024-03-29T08:29:53;8.20;99.90
26326;DHT22;14032;52.510;7.342;2024-03-29T08:32:18;8.20;99.90
26326;DHT22;14032;52.510;7.342;2024-03-29T08:34:44;8.20;99.90
26326;DHT22;14032;52.510;7.342;2024-03-29T08:37:10;8.30;99.90
26326;DHT22;14032;52.510;7.342;2024-03-29T08:39:37;8.30;99.90
26326;DHT22;14032;52.510;7.342;2024-03-29T08:42:04;8.30;99.90
26326;DHT22;14032;52.510;7.342;2024-03-29T08:44:33;8.30;99.90
26326;DHT22;14032;52.510;7.342;2024-03-29T08:46:59;8.40;99.90
26326;DHT22;14032;52.510;7.342;2024-03-29T08:49:27;8.40;99.90
26326;DHT22;14032;52.510;7.342;2024-03-29T08:51:53;8.40;99.90
26326;DHT22;14032;52.510;7.342;2024-03-29T08:54:19;8.50;99.90
26326;DHT22;14032;52.510;7.342;2024-03-29T08:56:44;8.50;99.90
26326;DHT22;14032;52.510;7.342;2024-03-29T08:59:10;8.60;99.90
26326;DHT22;14032;52.510;7.342;2024-03-29T09:01:41;8.60;99.90
26326;DHT22;14032;52.510;7.342;2024-03-29T09:04:07;8.60;99.90
26326;DHT22;14032;52.510;7.342;2024-03-29T09:06:37;8.60;99.90
26326;DHT22;14032;52.510;7.342;2024-03-29T09:09:04;8.70;99.90
26326;DHT22;14032;52.510;7.342;2024-03-29T09:11:30;8.70;99.90
26326;DHT22;14032;52.510;7.342;2024-03-29T09:13:55;8.80;99.90
26326;DHT22;14032;52.510;7.342;2024-03-29T09:16:24;8.90;99.90
26326;DHT22;14032;52.510;7.342;2024-03-29T09:18:51;8.90;99.90
26326;DHT22;14032;52.510;7.342;2024-03-29T09:21:16;8.90;99.90
26326;DHT22;14032;52.510;7.342;2024-03-29T09:23:42;9.00;99.90
26326;DHT22;14032;52.510;7.342;2024-03-29T09:26:08;9.00;99.90
26326;DHT22;14032;52.510;7.342;2024-03-29T09:28:34;9.10;99.90
26326;DHT22;14032;52.510;7.342;2024-03-29T09:31:01;9.20;99.90
26326;DHT22;14032;52.510;7.342;2024-03-29T09:33:27;9.30;99.90
26326;DHT22;14032;52.510;7.342;2024-03-29T09:35:53;9.40;99.90
26326;DHT22;14032;52.510;7.342;2024-03-29T09:38:19;9.50;99.90
26326;DHT22;14032;52.510;7.342;2024-03-29T09:40:45;9.60;99.90
26326;DHT22;14032;52.510;7.342;2024-03-29T09:43:14;9.60;99.90
26326;DHT22;14032;52.510;7.342;2024-03-29T09:45:40;9.70;99.90
26326;DHT22;14032;52.510;7.342;2024-03-29T09:48:08;9.80;99.90
26326;DHT22;14032;52.510;7.342;2024-03-29T09:50:35;9.90;99.90
26326;DHT22;14032;52.510;7.342;2024-03-29T09:53:07;10.00;99.90
26326;DHT22;14032;52.510;7.342;2024-03-29T09:55:37;10.00;99.90
26326;DHT22;14032;52.510;7.342;2024-03-29T09:58:05;10.00;99.90
26326;DHT22;14032;52.510;7.342;2024-03-29T10:00:31;10.10;99.90
26326;DHT22;14032;52.510;7.342;2024-03-29T10:02:57;10.10;99.90
26326;DHT22;14032;52.510;7.342;2024-03-29T10:05:24;10.20;99.90
26326;DHT22;14032;52.510;7.342;2024-03-29T10:07:52;10.30;99.90
26326;DHT22;14032;52.510;7.342;2024-03-29T10:10:18;10.50;99.90
26326;DHT22;14032;52.510;7.342;2024-03-29T10:12:47;10.60;99.90
26326;DHT22;14032;52.510;7.342;2024-03-29T10:15:13;10.70;99.90
26326;DHT22;14032;52.510;7.342;2024-03-29T10:17:47;10.70;99.90
26326;DHT22;14032;52.510;7.342;2024-03-29T10:20:19;10.90;99.90
26326;DHT22;14032;52.510;7.342;2024-03-29T10:22:49;11.10;99.90
26326;DHT22;14032;52.510;7.342;2024-03-29T10:25:20;11.20;99.90
26326;DHT22;14032;52.510;7.342;2024-03-29T10:27:49;11.40;99.90
26326;DHT22;14032;52.510;7.342;2024-03-29T10:30:15;11.50;99.90
26326;DHT22;14032;52.510;7.342;2024-03-29T10:32:45;11.60;99.90
26326;DHT22;14032;52.510;7.342;2024-03-29T10:35:13;11.80;99.90
26326;DHT22;14032;52.510;7.342;2024-03-29T10:37:42;11.80;99.90
26326;DHT22;14032;52.510;7.342;2024-03-29T10:40:09;11.90;99.90
26326;DHT22;14032;52.510;7.342;2024-03-29T10:42:38;12.00;99.90
26326;DHT22;14032;52.510;7.342;2024-03-29T10:45:08;12.00;99.90
26326;DHT22;14032;52.510;7.342;2024-03-29T10:47:34;12.10;99.90
26326;DHT22;14032;52.510;7.342;2024-03-29T10:50:01;12.20;99.90
26326;DHT22;14032;52.510;7.342;2024-03-29T10:52:30;12.30;99.90
26326;DHT22;14032;52.510;7.342;2024-03-29T10:54:56;12.40;99.90
26326;DHT22;14032;52.510;7.342;2024-03-29T10:57:26;12.50;99.90
26326;DHT22;14032;52.510;7.342;2024-03-29T11:00:38;12.40;99.90
26326;DHT22;14032;52.510;7.342;2024-03-29T11:03:13;12.40;99.90
26326;DHT22;14032;52.510;7.342;2024-03-29T11:05:48;12.20;99.90
26326;DHT22;14032;52.510;7.342;2024-03-29T11:08:21;12.20;99.90
26326;DHT22;14032;52.510;7.342;2024-03-29T11:10:51;12.20;99.90
26326;DHT22;14032;52.510;7.342;2024-03-29T11:13:40;12.30;99.90
26326;DHT22;14032;52.510;7.342;2024-03-29T11:16:05;12.20;99.90
26326;DHT22;14032;52.510;7.342;2024-03-29T11:18:31;12.20;99.90
26326;DHT22;14032;52.510;7.342;2024-03-29T11:20:58;12.10;99.90
26326;DHT22;14032;52.510;7.342;2024-03-29T11:23:26;12.10;99.90
26326;DHT22;14032;52.510;7.342;2024-03-29T11:25:54;12.10;99.90
26326;DHT22;14032;52.510;7.342;2024-03-29T11:28:25;12.10;99.90
26326;DHT22;14032;52.510;7.342;2024-03-29T11:30:52;12.20;99.90
26326;DHT22;14032;52.510;7.342;2024-03-29T11:33:30;12.20;99.90
26326;DHT22;14032;52.510;7.342;2024-03-29T11:35:56;12.20;99.90
26326;DHT22;14032;52.510;7.342;2024-03-29T11:38:30;12.30;99.90
26326;DHT22;14032;52.510;7.342;2024-03-29T11:41:06;12.20;99.90
26326;DHT22;14032;52.510;7.342;2024-03-29T11:43:34;12.20;99.90
26326;DHT22;14032;52.510;7.342;2024-03-29T11:46:01;12.20;99.90
26326;DHT22;14032;52.510;7.342;2024-03-29T11:48:28;12.30;99.90
26326;DHT22;14032;52.510;7.342;2024-03-29T11:50:54;12.30;99.90
26326;DHT22;14032;52.510;7.342;2024-03-29T11:53:20;12.40;99.90
26326;DHT22;14032;52.510;7.342;2024-03-29T11:55:47;12.40;99.90
26326;DHT22;14032;52.510;7.342;2024-03-29T11:58:14;12.40;99.90
26326;DHT22;14032;52.510;7.342;2024-03-29T12:00:41;12.40;99.90
26326;DHT22;14032;52.510;7.342;2024-03-29T12:03:10;12.40;99.90
26326;DHT22;14032;52.510;7.342;2024-03-29T12:05:35;12.40;99.90
26326;DHT22;14032;52.510;7.342;2024-03-29T12:08:01;12.30;99.90
26326;DHT22;14032;52.510;7.342;2024-03-29T12:10:28;12.20;99.90
26326;DHT22;14032;52.510;7.342;2024-03-29T12:12:56;12.20;99.90
26326;DHT22;14032;52.510;7.342;2024-03-29T12:15:24;12.10;99.90
26326;DHT22;14032;52.510;7.342;2024-03-29T12:18:04;12.10;99.90
26326;DHT22;14032;52.510;7.342;2024-03-29T12:20:32;12.10;99.90
26326;DHT22;14032;52.510;7.342;2024-03-29T12:23:06;12.10;99.90
26326;DHT22;14032;52.510;7.342;2024-03-29T12:25:37;12.20;99.90
26326;DHT22;14032;52.510;7.342;2024-03-29T12:28:03;12.20;99.90
26326;DHT22;14032;52.510;7.342;2024-03-29T12:30:29;12.30;99.90
26326;DHT22;14032;52.510;7.342;2024-03-29T12:33:05;12.30;99.90
26326;DHT22;14032;52.510;7.342;2024-03-29T12:35:33;12.50;99.90
26326;DHT22;14032;52.510;7.342;2024-03-29T12:38:03;12.60;99.90
26326;DHT22;14032;52.510;7.342;2024-03-29T12:40:31;12.70;99.90
26326;DHT22;14032;52.510;7.342;2024-03-29T12:43:05;12.80;99.90
26326;DHT22;14032;52.510;7.342;2024-03-29T12:45:31;12.90;99.90
26326;DHT22;14032;52.510;7.342;2024-03-29T12:47:57;13.00;99.90
26326;DHT22;14032;52.510;7.342;2024-03-29T12:50:31;13.10;99.90
26326;DHT22;14032;52.510;7.342;2024-03-29T12:52:58;13.20;99.90
26326;DHT22;14032;52.510;7.342;2024-03-29T12:55:26;13.10;99.90
26326;DHT22;14032;52.510;7.342;2024-03-29T12:57:56;13.00;99.90
26326;DHT22;14032;52.510;7.342;2024-03-29T13:00:22;13.00;99.90
26326;DHT22;14032;52.510;7.342;2024-03-29T13:02:48;13.10;99.90
26326;DHT22;14032;52.510;7.342;2024-03-29T13:05:13;13.10;99.90
26326;DHT22;14032;52.510;7.342;2024-03-29T13:07:39;13.20;99.90
26326;DHT22;14032;52.510;7.342;2024-03-29T13:10:05;13.30;99.90
26326;DHT22;14032;52.510;7.342;2024-03-29T13:12:45;13.40;99.90
26326;DHT22;14032;52.510;7.342;2024-03-29T13:15:23;13.50;99.90
26326;DHT22;14032;52.510;7.342;2024-03-29T13:17:53;13.60;99.90
26326;DHT22;14032;52.510;7.342;2024-03-29T13:20:20;13.70;99.90
26326;DHT22;14032;52.510;7.342;2024-03-29T13:22:46;13.60;99.90
26326;DHT22;14032;52.510;7.342;2024-03-29T13:25:15;13.60;99.90
26326;DHT22;14032;52.510;7.342;2024-03-29T13:27:42;13.70;99.90
26326;DHT22;14032;52.510;7.342;2024-03-29T13:30:10;13.70;99.90
26326;DHT22;14032;52.510;7.342;2024-03-29T13:32:36;13.70;99.90
26326;DHT22;14032;52.510;7.342;2024-03-29T13:35:02;13.80;99.90
26326;DHT22;14032;52.510;7.342;2024-03-29T13:37:31;13.80;99.90
26326;DHT22;14032;52.510;7.342;2024-03-29T13:39:57;13.80;99.90
26326;DHT22;14032;52.510;7.342;2024-03-29T13:42:23;13.80;99.90
26326;DHT22;14032;52.510;7.342;2024-03-29T13:44:52;13.80;99.90
26326;DHT22;14032;52.510;7.342;2024-03-29T13:47:19;13.80;99.90
26326;DHT22;14032;52.510;7.342;2024-03-29T13:49:45;13.90;99.90
26326;DHT22;14032;52.510;7.342;2024-03-29T13:52:12;13.90;99.90
26326;DHT22;14032;52.510;7.342;2024-03-29T13:54:43;13.90;99.90
26326;DHT22;14032;52.510;7.342;2024-03-29T13:57:09;13.90;99.90
26326;DHT22;14032;52.510;7.342;2024-03-29T13:59:35;13.90;99.90
26326;DHT22;14032;52.510;7.342;2024-03-29T14:02:01;13.90;99.90
26326;DHT22;14032;52.510;7.342;2024-03-29T14:04:27;13.90;99.90
26326;DHT22;14032;52.510;7.342;2024-03-29T14:06:52;13.80;99.90
26326;DHT22;14032;52.510;7.342;2024-03-29T14:09:19;13.90;99.90
26326;DHT22;14032;52.510;7.342;2024-03-29T14:11:44;13.90;99.90
26326;DHT22;14032;52.510;7.342;2024-03-29T14:14:12;13.90;99.90
26326;DHT22;14032;52.510;7.342;2024-03-29T14:16:38;13.90;99.90
26326;DHT22;14032;52.510;7.342;2024-03-29T14:19:03;13.90;99.90
26326;DHT22;14032;52.510;7.342;2024-03-29T14:21:29;13.90;99.90
26326;DHT22;14032;52.510;7.342;2024-03-29T14:23:57;13.90;99.90
26326;DHT22;14032;52.510;7.342;2024-03-29T14:26:23;14.00;99.90
26326;DHT22;14032;52.510;7.342;2024-03-29T14:28:48;14.00;99.90
26326;DHT22;14032;52.510;7.342;2024-03-29T14:31:15;14.10;99.90
26326;DHT22;14032;52.510;7.342;2024-03-29T14:33:41;14.10;99.90
26326;DHT22;14032;52.510;7.342;2024-03-29T14:36:07;14.10;99.90
26326;DHT22;14032;52.510;7.342;2024-03-29T14:38:33;14.10;99.90
26326;DHT22;14032;52.510;7.342;2024-03-29T14:40:58;14.00;99.90
26326;DHT22;14032;52.510;7.342;2024-03-29T14:43:25;14.10;99.90
26326;DHT22;14032;52.510;7.342;2024-03-29T14:45:50;14.10;99.90
26326;DHT22;14032;52.510;7.342;2024-03-29T14:48:17;14.20;99.90
26326;DHT22;14032;52.510;7.342;2024-03-29T14:50:43;14.20;99.90
26326;DHT22;14032;52.510;7.342;2024-03-29T14:53:09;14.10;99.90
26326;DHT22;14032;52.510;7.342;2024-03-29T14:55:35;14.10;99.90
26326;DHT22;14032;52.510;7.342;2024-03-29T14:58:07;14.10;99.90
26326;DHT22;14032;52.510;7.342;2024-03-29T15:00:33;14.00;99.90
26326;DHT22;14032;52.510;7.342;2024-03-29T15:02:59;14.00;99.90
26326;DHT22;14032;52.510;7.342;2024-03-29T15:05:24;14.00;99.90
26326;DHT22;14032;52.510;7.342;2024-03-29T15:07:52;13.90;99.90
26326;DHT22;14032;52.510;7.342;2024-03-29T15:10:18;13.90;99.90
26326;DHT22;14032;52.510;7.342;2024-03-29T15:12:45;13.80;99.90
26326;DHT22;14032;52.510;7.342;2024-03-29T15:15:12;13.80;99.90
26326;DHT22;14032;52.510;7.342;2024-03-29T15:17:38;13.70;99.90
26326;DHT22;14032;52.510;7.342;2024-03-29T15:20:04;13.70;99.90
26326;DHT22;14032;52.510;7.342;2024-03-29T15:22:31;13.70;99.90
26326;DHT22;14032;52.510;7.342;2024-03-29T15:24:58;13.70;99.90
26326;DHT22;14032;52.510;7.342;2024-03-29T15:27:24;13.70;99.90
26326;DHT22;14032;52.510;7.342;2024-03-29T15:30:15;13.80;99.90
26326;DHT22;14032;52.510;7.342;2024-03-29T15:32:41;13.80;99.90
26326;DHT22;14032;52.510;7.342;2024-03-29T15:35:08;13.90;99.90
26326;DHT22;14032;52.510;7.342;2024-03-29T15:37:34;13.90;99.90
26326;DHT22;14032;52.510;7.342;2024-03-29T15:40:00;14.00;99.90